Time;durP1;ratioP1;P1;durP2;ratioP2;P2;SDS_P1;SDS_P2;PMS_P1;PMS_P2;Temp;Humidity;BMP_temperature;BMP_pressure;BME280_temperature;BME280_humidity;BME280_pressure;Samples;Min_cycle;Max_cycle;Signal;HPM_P1;HPM_P2
2021/05/13 00:01:21;;;;;;;1999.90;999.90;;;;;;;13.17;100.00;94882.97;5071894;28;20626;-63
2021/05/13 00:03:48;;;;;;;1999.90;999.90;;;;;;;13.06;100.00;94885.22;5071925;28;20199;-62
2021/05/13 00:06:15;;;;;;;1999.90;999.90;;;;;;;13.03;100.00;94888.47;5071621;28;20224;-62
2021/05/13 00:08:42;;;;;;;1999.90;999.90;;;;;;;13.03;100.00;94887.72;5071877;28;20201;-63
2021/05/13 00:11:10;;;;;;;1999.90;999.90;;;;;;;12.98;100.00;94885.31;5071569;28;20235;-63
2021/05/13 00:13:39;;;;;;;1999.90;999.90;;;;;;;12.98;100.00;94895.72;5071888;28;20621;-62
2021/05/13 00:16:07;;;;;;;1999.90;999.90;;;;;;;12.93;100.00;94886.28;5071751;28;20638;-62
2021/05/13 00:18:34;;;;;;;1999.90;999.90;;;;;;;12.81;100.00;94887.00;5071397;28;20251;-62
2021/05/13 00:21:02;;;;;;;1999.90;999.90;;;;;;;12.85;100.00;94884.53;5071548;28;20197;-63
2021/05/13 00:23:29;;;;;;;1999.90;999.90;;;;;;;12.75;100.00;94890.13;5071419;28;20189;-65
2021/05/13 00:25:57;;;;;;;1999.90;999.90;;;;;;;12.64;100.00;94881.94;5071594;28;20208;-62
2021/05/13 00:28:24;;;;;;;1999.90;999.90;;;;;;;12.49;100.00;94885.16;5071629;28;20212;-62
2021/05/13 00:30:51;;;;;;;1999.90;999.90;;;;;;;12.43;100.00;94878.59;5071315;28;20235;-62
2021/05/13 00:33:18;;;;;;;1999.90;999.90;;;;;;;12.46;100.00;94873.50;5071256;28;20284;-61
2021/05/13 00:35:45;;;;;;;1999.90;999.90;;;;;;;12.43;100.00;94876.00;5071540;28;20288;-63
2021/05/13 00:38:11;;;;;;;1999.90;999.90;;;;;;;12.45;100.00;94874.59;5071254;28;20319;-63
2021/05/13 00:40:38;;;;;;;1999.90;999.90;;;;;;;12.41;100.00;94881.50;5071118;28;20197;-62
2021/05/13 00:43:06;;;;;;;1999.90;999.90;;;;;;;12.36;100.00;94883.56;5071093;28;20193;-65
2021/05/13 00:45:33;;;;;;;1999.90;999.90;;;;;;;12.35;100.00;94879.44;5070219;28;20203;-62
2021/05/13 00:48:05;;;;;;;1999.90;999.90;;;;;;;12.38;100.00;94887.38;5070902;28;20208;-62
2021/05/13 00:50:33;;;;;;;1999.90;999.90;;;;;;;12.34;100.00;94890.94;5071025;28;20721;-63
2021/05/13 00:53:05;;;;;;;1999.90;999.90;;;;;;;12.27;100.00;94888.84;5070913;28;20671;-63
2021/05/13 00:55:32;;;;;;;1999.90;999.90;;;;;;;12.18;100.00;94884.78;5071100;28;20206;-63
2021/05/13 00:57:59;;;;;;;1999.90;999.90;;;;;;;12.08;100.00;94885.91;5070726;28;20228;-63
2021/05/13 01:00:35;;;;;;;1999.90;999.90;;;;;;;12.16;100.00;94892.91;5070674;28;20254;-63
2021/05/13 01:03:03;;;;;;;1999.90;999.90;;;;;;;12.14;100.00;94896.91;5070974;28;20215;-64
2021/05/13 01:05:31;;;;;;;1999.90;999.90;;;;;;;12.16;100.00;94890.28;5070565;28;20232;-62
2021/05/13 01:07:59;;;;;;;1999.90;999.90;;;;;;;12.06;100.00;94888.06;5070610;28;20755;-63
2021/05/13 01:10:26;;;;;;;1999.90;999.90;;;;;;;12.04;100.00;94885.03;5070441;28;20305;-63
2021/05/13 01:12:56;;;;;;;1999.90;999.90;;;;;;;11.93;100.00;94889.84;5070449;28;20196;-63
2021/05/13 01:15:25;;;;;;;1999.90;999.90;;;;;;;11.99;100.00;94878.16;5070556;28;20207;-63
2021/05/13 01:17:59;;;;;;;1999.90;999.90;;;;;;;11.97;100.00;94885.53;5070530;28;20228;-64
2021/05/13 01:20:27;;;;;;;1999.90;999.90;;;;;;;11.97;100.00;94887.34;5070706;28;20197;-66
2021/05/13 01:22:55;;;;;;;1999.90;999.90;;;;;;;12.01;100.00;94888.25;5070482;28;20253;-65
2021/05/13 01:25:23;;;;;;;1999.90;999.90;;;;;;;12.00;100.00;94884.13;5070316;28;20246;-63
2021/05/13 01:27:57;;;;;;;1999.90;999.90;;;;;;;11.97;100.00;94884.75;5070297;28;20299;-62
2021/05/13 01:30:24;;;;;;;1999.90;999.90;;;;;;;11.97;100.00;94882.91;5070544;28;20218;-62
2021/05/13 01:32:51;;;;;;;1999.90;999.90;;;;;;;11.73;100.00;94876.78;5070268;28;20193;-63
2021/05/13 01:35:18;;;;;;;1999.90;999.90;;;;;;;11.53;100.00;94881.59;5070315;28;20235;-63
2021/05/13 01:37:45;;;;;;;1999.90;999.90;;;;;;;11.58;100.00;94875.47;5070125;28;20338;-62
2021/05/13 01:40:14;;;;;;;1999.90;999.90;;;;;;;11.66;100.00;94880.63;5070627;28;20278;-63
2021/05/13 01:42:41;;;;;;;1999.90;999.90;;;;;;;11.71;100.00;94871.09;5070203;28;20204;-62
2021/05/13 01:45:09;;;;;;;1999.90;999.90;;;;;;;11.68;100.00;94872.50;5070476;28;20204;-64
2021/05/13 01:47:36;;;;;;;1999.90;999.90;;;;;;;11.68;100.00;94869.13;5070270;28;20219;-64
2021/05/13 01:50:04;;;;;;;1999.90;999.90;;;;;;;11.70;100.00;94859.94;5070067;28;20687;-62
2021/05/13 01:52:31;;;;;;;1999.90;999.90;;;;;;;11.68;100.00;94862.09;5070510;28;20495;-63
2021/05/13 01:54:58;;;;;;;1999.90;999.90;;;;;;;11.74;100.00;94857.50;5070017;28;20355;-63
2021/05/13 01:57:26;;;;;;;1999.90;999.90;;;;;;;11.62;100.00;94858.13;5070213;28;20196;-62
2021/05/13 01:59:53;;;;;;;1999.90;999.90;;;;;;;11.61;100.00;94856.59;5069818;28;20311;-62
2021/05/13 02:02:21;;;;;;;1999.90;999.90;;;;;;;11.64;100.00;94856.00;5074391;28;20564;-61
2021/05/13 02:04:48;;;;;;;1999.90;999.90;;;;;;;11.59;100.00;94858.78;5076561;28;20255;-63
2021/05/13 02:07:15;;;;;;;1999.90;999.90;;;;;;;11.57;100.00;94863.53;5070982;28;20280;-63
2021/05/13 02:09:41;;;;;;;1999.90;999.90;;;;;;;11.54;100.00;94866.75;5069607;28;20289;-62
2021/05/13 02:12:09;;;;;;;1999.90;999.90;;;;;;;11.47;100.00;94867.25;5070063;28;20197;-64
2021/05/13 02:14:37;;;;;;;1999.90;999.90;;;;;;;11.49;100.00;94866.94;5070141;28;20235;-62
2021/05/13 02:17:03;;;;;;;1999.90;999.90;;;;;;;11.48;100.00;94862.81;5069666;28;20672;-62
2021/05/13 02:19:30;;;;;;;1999.90;999.90;;;;;;;11.47;100.00;94866.47;5069587;28;20232;-64
2021/05/13 02:21:57;;;;;;;1999.90;999.90;;;;;;;11.49;100.00;94861.72;5069728;28;20211;-62
2021/05/13 02:24:23;;;;;;;1999.90;999.90;;;;;;;11.43;100.00;94866.34;5069665;28;20188;-62
2021/05/13 02:26:50;;;;;;;1999.90;999.90;;;;;;;11.35;100.00;94871.59;5069536;28;20211;-63
2021/05/13 02:29:17;;;;;;;1999.90;999.90;;;;;;;11.29;100.00;94872.84;5069851;28;20192;-64
2021/05/13 02:31:45;;;;;;;1999.90;999.90;;;;;;;11.20;100.00;94873.66;5069806;28;20227;-64
2021/05/13 02:34:11;;;;;;;1999.90;999.90;;;;;;;11.27;100.00;94867.19;5070006;28;20208;-62
2021/05/13 02:36:38;;;;;;;1999.90;999.90;;;;;;;11.36;100.00;94865.28;5069752;28;20231;-64
2021/05/13 02:39:06;;;;;;;1999.90;999.90;;;;;;;11.36;100.00;94866.06;5069661;28;20251;-63
2021/05/13 02:41:32;;;;;;;1999.90;999.90;;;;;;;11.38;100.00;94868.38;5069878;28;20288;-63
2021/05/13 02:43:59;;;;;;;1999.90;999.90;;;;;;;11.39;100.00;94865.44;5069620;28;20288;-62
2021/05/13 02:46:26;;;;;;;1999.90;999.90;;;;;;;11.40;100.00;94872.19;5069620;28;20200;-62
2021/05/13 02:48:53;;;;;;;1999.90;999.90;;;;;;;11.45;100.00;94874.63;5069733;28;20207;-64
2021/05/13 02:51:20;;;;;;;1999.90;999.90;;;;;;;11.39;100.00;94875.09;5069694;28;20621;-63
2021/05/13 02:53:47;;;;;;;1999.90;999.90;;;;;;;11.39;100.00;94877.69;5069591;28;20199;-63
2021/05/13 02:56:14;;;;;;;1999.90;999.90;;;;;;;11.42;100.00;94877.81;5069545;28;20205;-61
2021/05/13 02:58:42;;;;;;;1999.90;999.90;;;;;;;11.36;100.00;94867.91;5069352;28;20231;-65
2021/05/13 03:01:21;;;;;;;1999.90;999.90;;;;;;;11.40;100.00;94868.81;5069407;28;20611;-63
2021/05/13 03:03:48;;;;;;;1999.90;999.90;;;;;;;11.46;100.00;94883.16;5069956;28;20196;-63
2021/05/13 03:06:16;;;;;;;1999.90;999.90;;;;;;;11.51;100.00;94877.78;5069513;28;20981;-63
2021/05/13 03:08:43;;;;;;;1999.90;999.90;;;;;;;11.59;100.00;94882.19;5070599;28;20639;-64
2021/05/13 03:11:10;;;;;;;1999.90;999.90;;;;;;;11.61;100.00;94883.41;5072780;28;20607;-64
2021/05/13 03:13:37;;;;;;;1999.90;999.90;;;;;;;11.70;100.00;94880.75;5072753;28;20200;-63
2021/05/13 03:16:05;;;;;;;1999.90;999.90;;;;;;;11.74;100.00;94875.72;5073015;28;20192;-63
2021/05/13 03:18:33;;;;;;;1999.90;999.90;;;;;;;11.66;100.00;94869.44;5072497;28;20232;-64
2021/05/13 03:21:04;;;;;;;1999.90;999.90;;;;;;;11.61;100.00;94875.59;5072729;28;20197;-63
2021/05/13 03:23:40;;;;;;;1999.90;999.90;;;;;;;11.76;100.00;94876.16;5073174;28;20189;-63
2021/05/13 03:26:07;;;;;;;1999.90;999.90;;;;;;;11.84;100.00;94865.69;5072837;28;20301;-63
2021/05/13 03:28:35;;;;;;;1999.90;999.90;;;;;;;11.87;100.00;94872.09;5072717;28;20212;-63
2021/05/13 03:31:01;;;;;;;1999.90;999.90;;;;;;;11.91;100.00;94868.56;5072682;28;20616;-63
2021/05/13 03:33:28;;;;;;;1999.90;999.90;;;;;;;11.91;100.00;94876.38;5072527;28;20689;-63
2021/05/13 03:35:55;;;;;;;1999.90;999.90;;;;;;;11.90;100.00;94864.44;5072562;28;20721;-64
2021/05/13 03:38:22;;;;;;;1999.90;999.90;;;;;;;11.99;100.00;94872.97;5072347;28;20247;-63
2021/05/13 03:40:49;;;;;;;1999.90;999.90;;;;;;;12.02;100.00;94869.72;5072403;28;20279;-63
2021/05/13 03:43:17;;;;;;;1999.90;999.90;;;;;;;12.06;100.00;94875.03;5072176;28;20690;-63
2021/05/13 03:45:43;;;;;;;1999.90;999.90;;;;;;;12.07;100.00;94882.53;5072474;28;20192;-63
2021/05/13 03:48:10;;;;;;;1999.90;999.90;;;;;;;12.21;100.00;94874.47;5072251;28;20573;-63
2021/05/13 03:50:38;;;;;;;1999.90;999.90;;;;;;;12.27;100.00;94873.22;5072605;28;20196;-63
2021/05/13 03:53:07;;;;;;;1999.90;999.90;;;;;;;12.27;100.00;94870.59;5072061;28;20246;-63
2021/05/13 03:55:37;;;;;;;1999.90;999.90;;;;;;;12.29;100.00;94871.06;5072163;28;20690;-63
2021/05/13 03:58:08;;;;;;;1999.90;999.90;;;;;;;12.31;100.00;94878.53;5072155;28;20580;-63
2021/05/13 04:00:42;;;;;;;1999.90;999.90;;;;;;;12.40;100.00;94879.25;5072154;28;20200;-62
2021/05/13 04:03:09;;;;;;;1999.90;999.90;;;;;;;12.31;100.00;94875.94;5072034;28;20200;-63
2021/05/13 04:05:36;;;;;;;1999.90;999.90;;;;;;;12.27;100.00;94891.44;5072087;28;20569;-64
2021/05/13 04:08:07;;;;;;;1999.90;999.90;;;;;;;12.13;100.00;94890.94;5072055;28;20277;-63
2021/05/13 04:10:34;;;;;;;1999.90;999.90;;;;;;;12.04;100.00;94883.19;5071586;28;20741;-62
2021/05/13 04:13:03;;;;;;;1999.90;999.90;;;;;;;12.14;100.00;94873.47;5072537;28;20690;-64
2021/05/13 04:15:31;;;;;;;1999.90;999.90;;;;;;;12.30;100.00;94877.03;5075860;28;20234;-64
2021/05/13 04:17:58;;;;;;;1999.90;999.90;;;;;;;12.27;100.00;94875.03;5076468;28;20248;-63
2021/05/13 04:20:25;;;;;;;1999.90;999.90;;;;;;;12.25;100.00;94874.63;5072819;28;20283;-65
2021/05/13 04:22:52;;;;;;;1999.90;999.90;;;;;;;12.28;100.00;94876.56;5072335;28;20688;-65
2021/05/13 04:25:19;;;;;;;1999.90;999.90;;;;;;;12.26;100.00;94882.09;5073046;28;20200;-63
2021/05/13 04:27:47;;;;;;;1999.90;999.90;;;;;;;12.26;100.00;94881.34;5073193;28;20203;-63
2021/05/13 04:30:15;;;;;;;1999.90;999.90;;;;;;;12.29;100.00;94883.31;5071792;28;20283;-62
2021/05/13 04:32:43;;;;;;;1999.90;999.90;;;;;;;12.25;100.00;94882.44;5071597;28;20300;-62
2021/05/13 04:35:12;;;;;;;1999.90;999.90;;;;;;;12.29;100.00;94881.47;5071532;28;20196;-61
2021/05/13 04:37:39;;;;;;;1999.90;999.90;;;;;;;12.35;100.00;94877.56;5071499;28;20188;-63
2021/05/13 04:40:07;;;;;;;1999.90;999.90;;;;;;;12.44;100.00;94874.91;5071166;28;20745;-63
2021/05/13 04:42:34;;;;;;;1999.90;999.90;;;;;;;12.43;100.00;94876.75;5071185;28;20204;-63
2021/05/13 04:45:01;;;;;;;1999.90;999.90;;;;;;;12.47;100.00;94875.03;5070960;28;20568;-62
2021/05/13 04:47:34;;;;;;;1999.90;999.90;;;;;;;12.52;100.00;94879.28;5070989;28;20208;-62
2021/05/13 04:50:03;;;;;;;1999.90;999.90;;;;;;;12.55;100.00;94889.09;5071082;28;20204;-62
2021/05/13 04:52:29;;;;;;;1999.90;999.90;;;;;;;12.66;100.00;94884.97;5070939;28;20222;-62
2021/05/13 04:54:58;;;;;;;1999.90;999.90;;;;;;;12.78;100.00;94887.66;5070775;28;20196;-62
2021/05/13 04:57:25;;;;;;;1999.90;999.90;;;;;;;12.88;100.00;94889.09;5071260;28;20199;-62
2021/05/13 04:59:52;;;;;;;1999.90;999.90;;;;;;;12.97;100.00;94886.38;5070643;28;20339;-61
2021/05/13 05:02:19;;;;;;;1999.90;999.90;;;;;;;12.99;100.00;94881.63;5070740;28;20308;-61
2021/05/13 05:04:46;;;;;;;1999.90;999.90;;;;;;;13.17;100.00;94893.41;5070578;28;20283;-61
2021/05/13 05:07:15;;;;;;;1999.90;999.90;;;;;;;13.27;100.00;94887.78;5070658;28;20200;-61
2021/05/13 05:09:42;;;;;;;1999.90;999.90;;;;;;;13.36;100.00;94899.63;5070616;28;20189;-61
2021/05/13 05:12:12;;;;;;;1999.90;999.90;;;;;;;13.30;100.00;94894.94;5070643;28;20597;-61
2021/05/13 05:14:39;;;;;;;1999.90;999.90;;;;;;;13.31;100.00;94889.41;5070398;28;20192;-61
2021/05/13 05:17:06;;;;;;;1999.90;999.90;;;;;;;13.24;100.00;94885.81;5070907;28;20203;-61
2021/05/13 05:19:32;;;;;;;1999.90;999.90;;;;;;;13.38;100.00;94883.66;5070078;28;20584;-61
2021/05/13 05:21:59;;;;;;;1999.90;999.90;;;;;;;13.39;100.00;94879.97;5070523;28;20205;-61
2021/05/13 05:24:27;;;;;;;1999.90;999.90;;;;;;;13.42;100.00;94879.31;5070333;28;20199;-62
2021/05/13 05:26:54;;;;;;;1999.90;999.90;;;;;;;13.46;100.00;94882.78;5070094;28;20192;-61
2021/05/13 05:29:21;;;;;;;1999.90;999.90;;;;;;;13.40;100.00;94885.94;5070690;28;20197;-60
2021/05/13 05:31:48;;;;;;;1999.90;999.90;;;;;;;13.48;100.00;94891.06;5070116;28;20222;-60
2021/05/13 05:34:15;;;;;;;1999.90;999.90;;;;;;;13.49;100.00;94895.19;5070298;28;20224;-63
2021/05/13 05:36:45;;;;;;;1999.90;999.90;;;;;;;13.57;100.00;94886.50;5070177;28;20226;-61
2021/05/13 05:39:11;;;;;;;1999.90;999.90;;;;;;;13.51;100.00;94893.00;5070006;28;20735;-62
2021/05/13 05:41:39;;;;;;;1999.90;999.90;;;;;;;13.51;100.00;94897.47;5069908;28;20232;-61
2021/05/13 05:44:07;;;;;;;1999.90;999.90;;;;;;;13.58;100.00;94897.69;5070149;28;20196;-61
2021/05/13 05:46:34;;;;;;;1999.90;999.90;;;;;;;13.74;100.00;94896.72;5070343;28;20200;-60
2021/05/13 05:49:01;;;;;;;1999.90;999.90;;;;;;;13.85;100.00;94893.69;5070244;28;20767;-61
2021/05/13 05:51:28;;;;;;;1999.90;999.90;;;;;;;13.98;100.00;94895.19;5070035;28;20201;-61
2021/05/13 05:53:55;;;;;;;1999.90;999.90;;;;;;;14.03;100.00;94897.56;5070085;28;20234;-61
2021/05/13 05:56:22;;;;;;;1999.90;999.90;;;;;;;14.00;100.00;94904.19;5069931;28;20291;-61
2021/05/13 05:58:49;;;;;;;1999.90;999.90;;;;;;;14.13;100.00;94902.34;5070180;28;20284;-61
2021/05/13 06:01:16;;;;;;;1999.90;999.90;;;;;;;14.08;100.00;94903.31;5069923;28;20279;-62
2021/05/13 06:03:43;;;;;;;1999.90;999.90;;;;;;;14.17;100.00;94897.97;5069912;28;20824;-61
2021/05/13 06:06:10;;;;;;;1999.90;999.90;;;;;;;14.35;100.00;94899.22;5070137;28;20616;-61
2021/05/13 06:08:37;;;;;;;1999.90;999.90;;;;;;;14.56;100.00;94897.22;5069981;28;20272;-59
2021/05/13 06:11:04;;;;;;;1999.90;999.90;;;;;;;14.47;100.00;94896.63;5069901;28;20604;-61
2021/05/13 06:13:30;;;;;;;1999.90;999.90;;;;;;;14.52;100.00;94891.16;5069894;28;20189;-63
2021/05/13 06:15:58;;;;;;;1999.90;999.90;;;;;;;14.70;100.00;94896.09;5070135;28;20204;-61
2021/05/13 06:18:25;;;;;;;1999.90;999.90;;;;;;;14.99;100.00;94893.13;5069751;28;20224;-61
2021/05/13 06:20:52;;;;;;;1999.90;999.90;;;;;;;15.25;97.32;94893.41;5069914;28;20197;-61
2021/05/13 06:23:19;;;;;;;1999.90;999.90;;;;;;;15.62;96.42;94895.81;5069794;28;20203;-61
2021/05/13 06:25:46;;;;;;;1999.90;999.90;;;;;;;15.72;94.95;94901.28;5069711;28;20668;-60
2021/05/13 06:28:13;;;;;;;1999.90;999.90;;;;;;;15.59;93.21;94899.13;5069835;28;20584;-60
2021/05/13 06:30:44;;;;;;;1999.90;999.90;;;;;;;15.57;93.30;94888.22;5069615;28;20284;-60
2021/05/13 06:33:12;;;;;;;1999.90;999.90;;;;;;;15.79;95.45;94895.47;5069679;28;20197;-61
2021/05/13 06:35:39;;;;;;;1999.90;999.90;;;;;;;16.17;93.44;94897.41;5069625;28;20549;-61
2021/05/13 06:38:05;;;;;;;1999.90;999.90;;;;;;;16.32;92.88;94886.88;5069651;28;20209;-61
2021/05/13 06:40:32;;;;;;;1999.90;999.90;;;;;;;16.51;91.14;94891.34;5069560;28;20271;-62
2021/05/13 06:43:03;;;;;;;1999.90;999.90;;;;;;;16.55;90.66;94894.81;5070114;28;20193;-61
2021/05/13 06:45:33;;;;;;;1999.90;999.90;;;;;;;16.46;92.74;94890.88;5074169;28;20232;-60
2021/05/13 06:47:59;;;;;;;1999.90;999.90;;;;;;;16.61;92.30;94892.69;5073458;28;20656;-61
2021/05/13 06:50:27;;;;;;;1999.90;999.90;;;;;;;16.75;89.88;94890.34;5073083;28;20766;-61
2021/05/13 06:52:54;;;;;;;1999.90;999.90;;;;;;;16.57;89.42;94894.47;5073356;28;20212;-61
2021/05/13 06:55:21;;;;;;;1999.90;999.90;;;;;;;16.59;90.27;94893.03;5073140;28;20552;-61
2021/05/13 06:57:48;;;;;;;1999.90;999.90;;;;;;;16.68;92.39;94898.09;5073301;28;20205;-61
2021/05/13 07:00:16;;;;;;;1999.90;999.90;;;;;;;16.68;90.61;94903.34;5073071;28;20235;-61
2021/05/13 07:02:44;;;;;;;1999.90;999.90;;;;;;;16.52;92.58;94902.63;5073014;28;20197;-61
2021/05/13 07:05:12;;;;;;;1999.90;999.90;;;;;;;16.39;93.86;94896.72;5073271;28;20195;-61
2021/05/13 07:07:40;;;;;;;1999.90;999.90;;;;;;;16.32;93.79;94892.13;5073322;28;20273;-61
2021/05/13 07:10:11;;;;;;;1999.90;999.90;;;;;;;16.23;92.57;94894.19;5072668;28;20319;-61
2021/05/13 07:12:38;;;;;;;1999.90;999.90;;;;;;;16.21;90.70;94893.75;5073183;28;20287;-61
2021/05/13 07:15:06;;;;;;;1999.90;999.90;;;;;;;16.20;91.70;94899.31;5072905;28;20679;-62
2021/05/13 07:17:33;;;;;;;1999.90;999.90;;;;;;;16.07;92.25;94892.69;5072644;28;20261;-62
2021/05/13 07:20:00;;;;;;;1999.90;999.90;;;;;;;16.13;91.13;94891.34;5073026;28;20224;-61
2021/05/13 07:22:27;;;;;;;1999.90;999.90;;;;;;;16.06;90.46;94891.16;5072905;28;20196;-61
2021/05/13 07:24:54;;;;;;;1999.90;999.90;;;;;;;16.19;90.29;94888.09;5072510;28;20189;-61
2021/05/13 07:27:21;;;;;;;1999.90;999.90;;;;;;;16.49;89.61;94885.69;5072551;28;20193;-61
2021/05/13 07:29:48;;;;;;;1999.90;999.90;;;;;;;16.53;89.04;94888.41;5072923;28;20229;-61
2021/05/13 07:32:15;;;;;;;1999.90;999.90;;;;;;;16.61;89.68;94876.97;5072496;28;20223;-61
2021/05/13 07:34:42;;;;;;;1999.90;999.90;;;;;;;16.92;93.12;94870.78;5072596;28;20203;-61
2021/05/13 07:37:09;;;;;;;1999.90;999.90;;;;;;;17.30;93.06;94867.28;5072681;28;20233;-61
2021/05/13 07:39:35;;;;;;;1999.90;999.90;;;;;;;17.65;88.59;94875.75;5072352;28;20232;-61
2021/05/13 07:42:03;;;;;;;1999.90;999.90;;;;;;;17.49;88.29;94872.47;5072649;28;20265;-61
2021/05/13 07:44:30;;;;;;;1999.90;999.90;;;;;;;17.76;88.31;94868.03;5072310;28;20223;-61
2021/05/13 07:46:58;;;;;;;1999.90;999.90;;;;;;;17.84;84.95;94870.41;5072264;28;20192;-61
2021/05/13 07:49:26;;;;;;;1999.90;999.90;;;;;;;17.75;83.08;94869.91;5072353;28;20257;-61
2021/05/13 07:51:53;;;;;;;1999.90;999.90;;;;;;;17.72;83.29;94872.50;5072484;28;20587;-60
2021/05/13 07:54:21;;;;;;;1999.90;999.90;;;;;;;17.88;82.13;94868.59;5071880;28;20188;-60
2021/05/13 07:56:48;;;;;;;1999.90;999.90;;;;;;;18.10;80.24;94871.50;5072039;28;20192;-60
2021/05/13 07:59:21;;;;;;;1999.90;999.90;;;;;;;17.91;79.00;94861.88;5072306;28;20255;-62
2021/05/13 08:01:48;;;;;;;1999.90;999.90;;;;;;;17.99;80.37;94869.50;5072150;28;20196;-61
2021/05/13 08:04:15;;;;;;;1999.90;999.90;;;;;;;18.21;80.06;94867.16;5072232;28;20188;-61
2021/05/13 08:06:42;;;;;;;1999.90;999.90;;;;;;;18.46;82.37;94870.84;5071939;28;20647;-62
2021/05/13 08:09:09;;;;;;;1999.90;999.90;;;;;;;18.58;83.05;94856.75;5072107;28;20624;-64
2021/05/13 08:11:35;;;;;;;1999.90;999.90;;;;;;;18.89;82.87;94849.16;5071791;28;20262;-62
2021/05/13 08:14:03;;;;;;;1999.90;999.90;;;;;;;18.82;77.70;94857.00;5072082;28;20204;-61
2021/05/13 08:16:30;;;;;;;1999.90;999.90;;;;;;;18.77;76.31;94851.31;5071742;28;20196;-61
2021/05/13 08:18:57;;;;;;;1999.90;999.90;;;;;;;18.78;78.72;94845.66;5071497;28;20323;-63
2021/05/13 08:21:24;;;;;;;1999.90;999.90;;;;;;;18.65;78.56;94848.91;5071620;28;20667;-62
2021/05/13 08:23:51;;;;;;;1999.90;999.90;;;;;;;18.62;75.76;94845.13;5071399;28;20315;-63
2021/05/13 08:26:18;;;;;;;1999.90;999.90;;;;;;;18.83;74.83;94842.69;5071450;28;20200;-61
2021/05/13 08:28:45;;;;;;;1999.90;999.90;;;;;;;18.91;73.86;94849.56;5071373;28;20250;-62
2021/05/13 08:31:11;;;;;;;1999.90;999.90;;;;;;;19.02;78.08;94841.00;5071439;28;20203;-62
2021/05/13 08:33:39;;;;;;;1999.90;999.90;;;;;;;19.15;74.10;94835.09;5071308;28;20197;-61
2021/05/13 08:36:06;;;;;;;1999.90;999.90;;;;;;;19.48;74.90;94829.00;5071507;28;20245;-61
2021/05/13 08:38:33;;;;;;;1999.90;999.90;;;;;;;19.83;72.01;94827.72;5071289;28;20235;-60
2021/05/13 08:41:00;;;;;;;1999.90;999.90;;;;;;;19.88;72.45;94822.84;5071585;28;20199;-60
2021/05/13 08:43:28;;;;;;;1999.90;999.90;;;;;;;19.81;66.55;94825.47;5071442;28;20192;-60
2021/05/13 08:45:56;;;;;;;1999.90;999.90;;;;;;;19.88;69.25;94814.94;5071451;28;20199;-60
2021/05/13 08:48:25;;;;;;;1999.90;999.90;;;;;;;20.09;68.06;94817.69;5071204;28;20283;-61
2021/05/13 08:50:53;;;;;;;1999.90;999.90;;;;;;;20.12;71.17;94805.66;5071041;28;20249;-61
2021/05/13 08:53:20;;;;;;;1999.90;999.90;;;;;;;20.35;72.62;94806.13;5070908;28;20250;-61
2021/05/13 08:55:47;;;;;;;1999.90;999.90;;;;;;;20.51;72.64;94803.94;5071110;28;20737;-61
2021/05/13 08:58:14;;;;;;;1999.90;999.90;;;;;;;20.68;69.11;94804.34;5070778;28;20241;-60
2021/05/13 09:00:51;;;;;;;1999.90;999.90;;;;;;;21.09;71.08;94804.78;5070890;28;20196;-63
2021/05/13 09:03:31;;;;;;;1999.90;999.90;;;;;;;21.29;66.84;94803.31;5070861;28;20253;-60
2021/05/13 09:05:59;;;;;;;1999.90;999.90;;;;;;;21.58;62.21;94796.84;5070528;28;20200;-61
2021/05/13 09:08:26;;;;;;;1999.90;999.90;;;;;;;21.43;59.05;94793.47;5070797;28;20200;-61
2021/05/13 09:10:53;;;;;;;1999.90;999.90;;;;;;;21.38;58.82;94793.84;5070330;28;20287;-61
2021/05/13 09:13:29;;;;;;;1999.90;999.90;;;;;;;21.01;64.01;94790.81;5070587;28;20196;-61
2021/05/13 09:15:56;;;;;;;1999.90;999.90;;;;;;;21.02;59.61;94794.97;5070435;28;20573;-62
2021/05/13 09:18:33;;;;;;;1999.90;999.90;;;;;;;20.97;58.16;94777.59;5070325;28;20720;-61
2021/05/13 09:21:05;;;;;;;1999.90;999.90;;;;;;;21.21;60.79;94783.31;5070898;28;20210;-61
2021/05/13 09:23:32;;;;;;;1999.90;999.90;;;;;;;21.32;57.75;94790.06;5070452;28;20732;-63
2021/05/13 09:26:07;;;;;;;1999.90;999.90;;;;;;;21.51;59.10;94782.91;5070477;28;20245;-61
2021/05/13 09:28:34;;;;;;;1999.90;999.90;;;;;;;21.59;59.62;94776.47;5070771;28;20196;-62
2021/05/13 09:31:01;;;;;;;1999.90;999.90;;;;;;;22.01;61.62;94773.00;5070403;28;20203;-61
2021/05/13 09:33:29;;;;;;;1999.90;999.90;;;;;;;21.58;56.50;94780.22;5070352;28;20265;-62
2021/05/13 09:35:55;;;;;;;1999.90;999.90;;;;;;;21.85;56.07;94773.38;5070568;28;20196;-62
2021/05/13 09:38:34;;;;;;;1999.90;999.90;;;;;;;21.92;54.03;94776.75;5070205;28;20206;-61
2021/05/13 09:41:01;;;;;;;1999.90;999.90;;;;;;;22.08;56.75;94765.75;5070160;28;20565;-63
2021/05/13 09:43:32;;;;;;;1999.90;999.90;;;;;;;22.29;55.13;94765.69;5070511;28;20205;-61
2021/05/13 09:46:00;;;;;;;1999.90;999.90;;;;;;;22.00;54.43;94755.59;5070129;28;20211;-62
2021/05/13 09:48:34;;;;;;;1999.90;999.90;;;;;;;21.70;55.43;94746.22;5070109;28;20242;-61
2021/05/13 09:51:19;;;;;;;1999.90;999.90;;;;;;;21.78;54.83;94750.34;5069976;28;20200;-61
2021/05/13 09:53:48;;;;;;;1999.90;999.90;;;;;;;22.21;55.06;94745.69;5070135;28;20192;-61
2021/05/13 09:56:25;;;;;;;1999.90;999.90;;;;;;;22.53;55.53;94750.03;5069952;28;20197;-61
2021/05/13 09:58:52;;;;;;;1999.90;999.90;;;;;;;22.91;56.98;94745.69;5069890;28;20227;-61
2021/05/13 10:01:19;;;;;;;1999.90;999.90;;;;;;;23.33;52.92;94732.06;5070217;28;20588;-61
2021/05/13 10:03:46;;;;;;;1999.90;999.90;;;;;;;23.41;51.90;94732.75;5069980;28;20199;-61
2021/05/13 10:06:13;;;;;;;1999.90;999.90;;;;;;;23.37;46.88;94729.34;5069961;28;20184;-62
2021/05/13 10:08:42;;;;;;;1999.90;999.90;;;;;;;23.49;48.05;94729.66;5070390;28;20205;-62
2021/05/13 10:11:15;;;;;;;1999.90;999.90;;;;;;;23.88;48.06;94720.53;5069727;28;20250;-61
2021/05/13 10:13:42;;;;;;;1999.90;999.90;;;;;;;24.14;44.10;94725.13;5069856;28;20196;-62
2021/05/13 10:16:08;;;;;;;1999.90;999.90;;;;;;;24.35;48.20;94716.19;5069838;28;20618;-62
2021/05/13 10:18:40;;;;;;;1999.90;999.90;;;;;;;24.34;45.31;94706.69;5071243;28;20223;-62
2021/05/13 10:21:12;;;;;;;1999.90;999.90;;;;;;;24.69;42.71;94711.50;5074438;28;20353;-62
2021/05/13 10:23:41;;;;;;;1999.90;999.90;;;;;;;25.05;43.23;94703.00;5074301;28;20200;-63
2021/05/13 10:26:08;;;;;;;1999.90;999.90;;;;;;;25.25;42.08;94698.50;5073864;28;20192;-62
2021/05/13 10:28:36;;;;;;;1999.90;999.90;;;;;;;25.12;39.48;94706.28;5073941;28;20197;-63
2021/05/13 10:31:05;;;;;;;1999.90;999.90;;;;;;;25.31;45.13;94696.84;5073611;28;20279;-61
2021/05/13 10:33:49;;;;;;;1999.90;999.90;;;;;;;25.66;38.41;94696.22;5074466;28;20199;-61
2021/05/13 10:36:17;;;;;;;1999.90;999.90;;;;;;;25.54;38.02;94694.16;5073775;28;20188;-61
2021/05/13 10:38:50;;;;;;;1999.90;999.90;;;;;;;25.37;38.85;94699.78;5073587;28;20232;-61
2021/05/13 10:41:36;;;;;;;1999.90;999.90;;;;;;;25.46;35.90;94689.34;5073614;28;20250;-62
2021/05/13 10:44:36;;;;;;;1999.90;999.90;;;;;;;25.64;35.81;94687.91;5073906;28;20283;-59
2021/05/13 10:47:04;;;;;;;1999.90;999.90;;;;;;;26.07;36.68;94687.06;5073368;28;20193;-60
2021/05/13 10:49:31;;;;;;;1999.90;999.90;;;;;;;26.14;35.30;94689.59;5073321;28;20193;-62
2021/05/13 10:52:17;;;;;;;1999.90;999.90;;;;;;;25.90;35.13;94683.63;5073281;28;20201;-61
2021/05/13 10:54:45;;;;;;;1999.90;999.90;;;;;;;24.80;37.39;94679.47;5073434;28;20222;-60